createdAt,value
2023-02-03T00:00:57.832Z,100.00
2023-02-03T00:03:26.006Z,100.00
2023-02-03T00:05:54.884Z,100.00
2023-02-03T00:08:24.387Z,100.00
2023-02-03T00:10:54.887Z,100.00
2023-02-03T00:13:25.810Z,100.00
2023-02-03T00:15:54.044Z,100.00
2023-02-03T00:18:21.968Z,100.00
2023-02-03T00:20:50.272Z,100.00
2023-02-03T00:23:18.359Z,100.00
2023-02-03T00:25:46.783Z,100.00
2023-02-03T00:28:16.213Z,100.00
2023-02-03T00:30:44.953Z,100.00
2023-02-03T00:33:12.941Z,100.00
2023-02-03T00:35:42.225Z,100.00
2023-02-03T00:38:10.399Z,100.00
2023-02-03T00:40:38.349Z,100.00
2023-02-03T00:43:06.409Z,100.00
2023-02-03T00:45:35.856Z,100.00
2023-02-03T00:48:04.022Z,100.00
2023-02-03T00:50:31.972Z,100.00
2023-02-03T00:53:00.109Z,100.00
2023-02-03T00:55:28.436Z,100.00
2023-02-03T00:57:56.586Z,100.00
2023-02-03T01:00:24.983Z,100.00
2023-02-03T01:02:54.760Z,100.00
2023-02-03T01:05:22.942Z,100.00
2023-02-03T01:07:50.947Z,100.00
2023-02-03T01:10:18.950Z,100.00
2023-02-03T01:12:46.947Z,100.00
2023-02-03T01:15:15.065Z,100.00
2023-02-03T01:17:42.967Z,100.00
2023-02-03T01:20:13.926Z,100.00
2023-02-03T01:22:42.881Z,100.00
2023-02-03T01:25:10.827Z,100.00
2023-02-03T01:27:39.041Z,100.00
2023-02-03T01:30:07.395Z,100.00
2023-02-03T01:32:35.667Z,100.00
2023-02-03T01:35:05.969Z,100.00
2023-02-03T01:37:35.191Z,100.00
2023-02-03T01:40:03.170Z,100.00
2023-02-03T01:42:34.763Z,100.00
2023-02-03T01:45:02.743Z,100.00
2023-02-03T01:47:36.187Z,100.00
2023-02-03T01:50:12.279Z,100.00
2023-02-03T01:52:43.962Z,100.00
2023-02-03T01:55:15.524Z,100.00
2023-02-03T01:57:48.398Z,100.00
2023-02-03T02:00:17.008Z,100.00
2023-02-03T02:02:47.337Z,100.00
2023-02-03T02:05:21.337Z,100.00
2023-02-03T02:07:52.459Z,100.00
2023-02-03T02:10:20.663Z,100.00
2023-02-03T02:12:49.154Z,100.00
2023-02-03T02:15:18.117Z,100.00
2023-02-03T02:18:05.074Z,100.00
2023-02-03T02:20:40.945Z,100.00
2023-02-03T02:23:42.600Z,100.00
2023-02-03T02:26:41.718Z,100.00
2023-02-03T02:29:29.438Z,100.00
2023-02-03T02:32:06.666Z,100.00
2023-02-03T02:34:48.033Z,100.00
2023-02-03T02:37:27.567Z,100.00
2023-02-03T02:40:07.274Z,100.00
2023-02-03T02:42:40.475Z,100.00
2023-02-03T02:45:16.127Z,100.00
2023-02-03T02:47:46.335Z,100.00
2023-02-03T02:50:19.345Z,100.00
2023-02-03T02:52:49.829Z,100.00
2023-02-03T02:55:24.504Z,100.00
2023-02-03T02:57:56.976Z,100.00
2023-02-03T03:00:25.741Z,100.00
2023-02-03T03:02:55.224Z,100.00
2023-02-03T03:05:24.118Z,100.00
2023-02-03T03:07:57.593Z,100.00
2023-02-03T03:10:29.161Z,100.00
2023-02-03T03:13:02.923Z,100.00
2023-02-03T03:15:33.695Z,100.00
2023-02-03T03:18:09.001Z,100.00
2023-02-03T03:20:42.841Z,100.00
2023-02-03T03:23:15.392Z,100.00
2023-02-03T03:25:47.964Z,100.00
2023-02-03T03:28:24.048Z,100.00
2023-02-03T03:30:52.092Z,100.00
2023-02-03T03:33:22.464Z,100.00
2023-02-03T03:35:56.651Z,100.00
2023-02-03T03:38:32.136Z,100.00
2023-02-03T03:41:05.101Z,100.00
2023-02-03T03:43:38.856Z,100.00
2023-02-03T03:46:13.474Z,100.00
2023-02-03T03:48:49.598Z,100.00
2023-02-03T03:51:21.257Z,100.00
2023-02-03T03:53:51.983Z,100.00
2023-02-03T03:56:28.631Z,100.00
2023-02-03T03:58:59.132Z,100.00
2023-02-03T04:01:27.586Z,100.00
2023-02-03T04:04:00.748Z,100.00
2023-02-03T04:06:28.857Z,100.00
2023-02-03T04:08:57.005Z,100.00
2023-02-03T04:11:42.581Z,100.00
2023-02-03T04:14:10.747Z,100.00
2023-02-03T04:16:38.614Z,100.00
2023-02-03T04:19:08.614Z,100.00
2023-02-03T04:21:36.564Z,100.00
2023-02-03T04:24:04.667Z,100.00
2023-02-03T04:26:32.602Z,100.00
2023-02-03T04:29:00.525Z,100.00
2023-02-03T04:31:28.497Z,100.00
2023-02-03T04:33:56.562Z,100.00
2023-02-03T04:36:25.986Z,100.00
2023-02-03T04:38:53.923Z,100.00
2023-02-03T04:41:24.876Z,100.00
2023-02-03T04:43:52.805Z,100.00
2023-02-03T04:46:20.764Z,100.00
2023-02-03T04:48:48.663Z,100.00
2023-02-03T04:51:16.571Z,100.00
2023-02-03T04:53:45.866Z,100.00
2023-02-03T04:56:15.544Z,100.00
2023-02-03T04:58:43.437Z,100.00
2023-02-03T05:01:11.678Z,100.00
2023-02-03T05:03:39.628Z,100.00
2023-02-03T05:06:07.634Z,100.00
2023-02-03T05:08:35.534Z,100.00
2023-02-03T05:11:06.633Z,100.00
2023-02-03T05:13:34.655Z,100.00
2023-02-03T05:16:02.538Z,100.00
2023-02-03T05:18:30.493Z,100.00
2023-02-03T05:20:58.400Z,100.00
2023-02-03T05:23:26.360Z,100.00
2023-02-03T05:25:54.251Z,100.00
2023-02-03T05:28:23.569Z,100.00
2023-02-03T05:30:51.579Z,100.00
2023-02-03T05:33:19.694Z,100.00
2023-02-03T05:35:47.706Z,100.00
2023-02-03T05:38:15.611Z,100.00
2023-02-03T05:41:00.911Z,100.00
2023-02-03T05:43:30.302Z,100.00
2023-02-03T05:46:01.731Z,100.00
2023-02-03T05:48:29.791Z,100.00
2023-02-03T05:50:58.018Z,100.00
2023-02-03T05:53:27.151Z,100.00
2023-02-03T05:55:55.114Z,100.00
2023-02-03T05:58:23.103Z,100.00
2023-02-03T06:00:53.136Z,100.00
2023-02-03T06:03:21.198Z,100.00
2023-02-03T06:05:49.179Z,100.00
2023-02-03T06:08:17.244Z,100.00
2023-02-03T06:10:45.173Z,100.00
2023-02-03T06:13:14.617Z,100.00
2023-02-03T06:15:42.889Z,100.00
2023-02-03T06:18:12.185Z,100.00
2023-02-03T06:20:40.180Z,100.00
2023-02-03T06:23:08.187Z,100.00
2023-02-03T06:25:36.072Z,100.00
2023-02-03T06:28:04.102Z,100.00
2023-02-03T06:30:32.174Z,100.00
2023-02-03T06:33:00.141Z,100.00
2023-02-03T06:35:29.559Z,100.00
2023-02-03T06:37:57.524Z,100.00
2023-02-03T06:40:25.805Z,100.00
2023-02-03T06:42:54.011Z,100.00
2023-02-03T06:45:21.973Z,100.00
2023-02-03T06:47:50.016Z,100.00
2023-02-03T06:50:17.999Z,100.00
2023-02-03T06:52:47.353Z,100.00
2023-02-03T06:55:15.430Z,100.00
2023-02-03T06:57:48.164Z,100.00
2023-02-03T07:00:19.179Z,100.00
2023-02-03T07:02:53.780Z,100.00
2023-02-03T07:05:21.544Z,100.00
2023-02-03T07:07:51.723Z,100.00
2023-02-03T07:10:20.123Z,100.00
2023-02-03T07:12:48.070Z,100.00
2023-02-03T07:15:16.838Z,100.00
2023-02-03T07:17:46.851Z,100.00
2023-02-03T07:20:14.738Z,100.00
2023-02-03T07:22:43.875Z,100.00
2023-02-03T07:25:13.170Z,100.00
2023-02-03T07:27:41.256Z,100.00
2023-02-03T07:30:10.622Z,100.00
2023-02-03T07:32:38.516Z,100.00
2023-02-03T07:35:09.606Z,100.00
2023-02-03T07:37:37.509Z,100.00
2023-02-03T07:40:06.343Z,100.00
2023-02-03T07:42:35.727Z,100.00
2023-02-03T07:45:03.692Z,100.00
2023-02-03T07:47:31.609Z,100.00
2023-02-03T07:49:59.620Z,100.00
2023-02-03T07:52:27.588Z,100.00
2023-02-03T07:54:55.524Z,100.00
2023-02-03T07:57:24.196Z,100.00
2023-02-03T07:59:53.521Z,100.00
2023-02-03T08:02:21.473Z,100.00
2023-02-03T08:04:49.754Z,100.00
2023-02-03T08:07:17.767Z,100.00
2023-02-03T08:09:45.713Z,100.00
2023-02-03T08:12:13.682Z,100.00
2023-02-03T08:14:41.573Z,100.00
2023-02-03T08:17:10.840Z,100.00
2023-02-03T08:19:38.873Z,100.00
2023-02-03T08:22:06.924Z,100.00
2023-02-03T08:24:34.904Z,100.00
2023-02-03T08:27:02.829Z,100.00
2023-02-03T08:29:30.776Z,100.00
2023-02-03T08:31:58.765Z,100.00
2023-02-03T08:34:28.327Z,100.00
2023-02-03T08:36:56.452Z,100.00
2023-02-03T08:39:25.329Z,100.00
2023-02-03T08:41:53.514Z,100.00
2023-02-03T08:44:24.568Z,100.00
2023-02-03T08:46:52.782Z,100.00
2023-02-03T08:49:21.557Z,100.00
2023-02-03T08:51:52.376Z,100.00
2023-02-03T08:54:23.381Z,100.00
2023-02-03T08:56:51.506Z,100.00
2023-02-03T08:59:19.762Z,100.00
2023-02-03T09:01:48.476Z,100.00
2023-02-03T09:04:19.328Z,100.00
2023-02-03T09:06:47.958Z,100.00
2023-02-03T09:09:17.988Z,100.00
2023-02-03T09:11:45.982Z,100.00
2023-02-03T09:14:14.048Z,100.00
2023-02-03T09:16:42.128Z,100.00
2023-02-03T09:19:10.549Z,100.00
2023-02-03T09:21:42.868Z,100.00
2023-02-03T09:24:12.346Z,100.00
2023-02-03T09:26:41.692Z,100.00
2023-02-03T09:29:09.826Z,100.00
2023-02-03T09:31:37.875Z,100.00
2023-02-03T09:34:05.889Z,100.00
2023-02-03T09:36:33.902Z,100.00
2023-02-03T09:39:02.016Z,100.00
2023-02-03T09:41:52.205Z,100.00
2023-02-03T09:44:28.637Z,100.00
2023-02-03T09:46:59.841Z,100.00
2023-02-03T09:49:34.693Z,100.00
2023-02-03T09:53:14.607Z,100.00
2023-02-03T09:55:46.324Z,100.00
2023-02-03T09:58:18.319Z,100.00
2023-02-03T10:00:49.931Z,100.00
2023-02-03T10:03:29.422Z,100.00
2023-02-03T10:06:09.079Z,100.00
2023-02-03T10:08:56.085Z,100.00
2023-02-03T10:11:36.494Z,100.00
2023-02-03T10:14:18.266Z,100.00
2023-02-03T10:17:01.824Z,100.00
2023-02-03T10:19:41.807Z,100.00
2023-02-03T10:22:14.503Z,100.00
2023-02-03T10:24:47.855Z,100.00
2023-02-03T10:27:19.203Z,100.00
2023-02-03T10:29:56.100Z,100.00
2023-02-03T10:32:25.762Z,100.00
2023-02-03T10:35:12.892Z,100.00
2023-02-03T10:37:45.752Z,100.00
2023-02-03T10:40:17.701Z,100.00
2023-02-03T10:43:06.642Z,100.00
2023-02-03T10:45:39.262Z,100.00
2023-02-03T10:48:12.759Z,100.00
2023-02-03T14:49:34.871Z,100.00
2023-02-03T14:52:17.874Z,100.00
2023-02-03T14:55:15.440Z,100.00
2023-02-03T14:57:52.238Z,100.00
2023-02-03T15:00:31.255Z,100.00
2023-02-03T15:03:22.287Z,100.00
2023-02-03T15:05:54.349Z,100.00
2023-02-03T15:08:58.956Z,100.00
2023-02-03T15:11:33.119Z,99.61
2023-02-03T15:14:27.553Z,98.99
2023-02-03T15:16:58.746Z,96.61
2023-02-03T15:19:29.537Z,98.40
2023-02-03T15:25:19.146Z,97.75
2023-02-03T15:27:47.781Z,97.83
2023-02-03T15:30:18.015Z,98.08
2023-02-03T15:32:59.827Z,97.93
2023-02-03T15:35:31.420Z,98.87
2023-02-03T15:38:05.189Z,100.00
2023-02-03T15:40:39.379Z,100.00
2023-02-03T15:43:14.015Z,100.00
2023-02-03T15:45:58.759Z,100.00
2023-02-03T15:48:38.073Z,100.00
2023-02-03T15:51:11.214Z,100.00
2023-02-03T15:53:55.696Z,100.00
2023-02-03T15:56:37.726Z,100.00
2023-02-03T15:59:07.103Z,100.00
2023-02-03T16:01:35.500Z,100.00
2023-02-03T16:04:10.604Z,100.00
2023-02-03T16:06:43.628Z,100.00
2023-02-03T16:09:28.645Z,100.00
2023-02-03T16:12:23.214Z,100.00
2023-02-03T16:14:52.269Z,100.00
2023-02-03T16:17:31.863Z,100.00
2023-02-03T16:20:25.687Z,100.00
2023-02-03T16:23:08.483Z,100.00
2023-02-03T16:25:37.038Z,100.00
2023-02-03T16:28:35.271Z,100.00
2023-02-03T16:31:29.336Z,100.00
2023-02-03T16:34:16.637Z,100.00
2023-02-03T16:37:02.820Z,100.00
2023-02-03T16:39:48.735Z,100.00
2023-02-03T16:42:39.003Z,100.00
2023-02-03T16:45:34.981Z,100.00
2023-02-03T16:48:23.494Z,100.00
2023-02-03T16:50:53.823Z,100.00
2023-02-03T16:53:24.320Z,100.00
2023-02-03T16:55:54.297Z,100.00
2023-02-03T16:58:23.041Z,100.00
2023-02-03T17:00:54.040Z,100.00
2023-02-03T17:03:25.414Z,100.00
2023-02-03T17:05:54.065Z,100.00
2023-02-03T17:08:24.361Z,100.00
2023-02-03T17:10:53.058Z,100.00
2023-02-03T17:13:25.476Z,100.00
2023-02-03T17:15:59.793Z,100.00
2023-02-03T17:18:28.429Z,100.00
2023-02-03T17:20:58.929Z,100.00
2023-02-03T17:23:26.973Z,100.00
2023-02-03T17:25:55.354Z,100.00
2023-02-03T17:28:23.643Z,100.00
2023-02-03T17:31:07.786Z,100.00
2023-02-03T17:33:36.258Z,100.00
2023-02-03T17:36:07.162Z,100.00
2023-02-03T17:55:18.920Z,100.00
2023-02-03T17:57:47.226Z,100.00
2023-02-03T18:00:16.064Z,100.00
2023-02-03T18:02:45.558Z,100.00
2023-02-03T18:05:13.789Z,100.00
2023-02-03T18:07:42.002Z,100.00
2023-02-03T18:10:10.776Z,100.00
2023-02-03T18:12:39.071Z,100.00
2023-02-03T18:15:07.676Z,100.00
2023-02-03T18:17:36.035Z,100.00
2023-02-03T18:20:06.145Z,100.00
2023-02-03T18:22:34.869Z,100.00
2023-02-03T18:25:02.849Z,100.00
2023-02-03T18:27:31.000Z,100.00
2023-02-03T18:29:59.722Z,100.00
2023-02-03T18:32:29.488Z,100.00
2023-02-03T18:34:57.604Z,100.00
2023-02-03T18:37:28.422Z,100.00
2023-02-03T18:39:56.786Z,100.00
2023-02-03T18:42:25.614Z,100.00
2023-02-03T18:44:53.708Z,100.00
2023-02-03T18:47:21.850Z,100.00
2023-02-03T18:49:50.221Z,100.00
2023-02-03T18:52:18.346Z,100.00
2023-02-03T18:54:48.464Z,100.00
2023-02-03T18:57:16.783Z,100.00
2023-02-03T18:59:45.535Z,100.00
2023-02-03T19:02:14.150Z,100.00
2023-02-03T19:04:42.537Z,100.00
2023-02-03T19:07:12.305Z,100.00
2023-02-03T19:09:41.251Z,100.00
2023-02-03T19:12:11.595Z,100.00
2023-02-03T19:14:39.992Z,100.00
2023-02-03T19:17:11.336Z,100.00
2023-02-03T19:19:39.920Z,100.00
2023-02-03T19:22:08.518Z,100.00
2023-02-03T19:24:37.091Z,100.00
2023-02-03T19:27:05.530Z,100.00
2023-02-03T19:29:35.826Z,100.00
2023-02-03T19:32:04.906Z,100.00
2023-02-03T19:34:33.498Z,100.00
2023-02-03T19:37:01.711Z,100.00
2023-02-03T19:39:32.265Z,100.00
2023-02-03T19:42:00.435Z,100.00
2023-02-03T19:44:29.481Z,100.00
2023-02-03T19:46:59.065Z,100.00
2023-02-03T19:49:33.352Z,100.00
2023-02-03T19:52:03.385Z,100.00
2023-02-03T19:54:32.766Z,100.00
2023-02-03T19:57:01.968Z,100.00
2023-02-03T19:59:29.975Z,100.00
2023-02-03T20:02:04.068Z,100.00
2023-02-03T20:04:37.942Z,100.00
2023-02-03T20:07:06.051Z,100.00
2023-02-03T20:09:34.455Z,100.00
2023-02-03T20:12:05.668Z,100.00
2023-02-03T20:14:33.887Z,100.00
2023-02-03T20:17:06.050Z,100.00
2023-02-03T20:19:34.536Z,100.00
2023-02-03T20:22:02.880Z,100.00
2023-02-03T20:24:31.072Z,100.00
2023-02-03T20:26:59.348Z,100.00
2023-02-03T20:29:27.773Z,100.00
2023-02-03T20:31:57.506Z,100.00
2023-02-03T20:34:28.689Z,100.00
2023-02-03T20:36:58.732Z,100.00
2023-02-03T20:39:27.516Z,100.00
2023-02-03T20:41:56.082Z,100.00
2023-02-03T20:44:24.493Z,100.00
2023-02-03T20:46:56.081Z,100.00
2023-02-03T20:49:30.574Z,100.00
2023-02-03T20:51:58.823Z,100.00
2023-02-03T20:54:27.636Z,100.00
2023-02-03T20:56:58.822Z,100.00
2023-02-03T20:59:27.771Z,100.00
2023-02-03T21:01:56.096Z,100.00
2023-02-03T21:04:41.566Z,100.00
2023-02-03T21:07:15.701Z,100.00
2023-02-03T21:09:44.096Z,100.00
2023-02-03T21:12:13.974Z,100.00
2023-02-03T21:14:44.679Z,100.00
2023-02-03T21:17:18.264Z,100.00
2023-02-03T21:19:46.882Z,100.00
2023-02-03T21:22:21.196Z,100.00
2023-02-03T21:24:52.240Z,100.00
2023-02-03T21:27:24.919Z,100.00
2023-02-03T21:29:56.653Z,100.00
2023-02-03T21:32:29.133Z,100.00
2023-02-03T21:34:57.351Z,100.00
2023-02-03T21:37:45.661Z,100.00
2023-02-03T21:40:26.599Z,100.00
2023-02-03T21:42:56.398Z,100.00
2023-02-03T21:45:36.717Z,100.00
2023-02-03T21:48:30.082Z,100.00
2023-02-03T21:51:01.734Z,100.00
2023-02-03T21:53:35.196Z,100.00
2023-02-03T21:56:18.228Z,100.00
2023-02-03T21:58:48.517Z,100.00
2023-02-03T22:01:19.669Z,100.00
2023-02-03T22:03:49.832Z,100.00
2023-02-03T22:06:22.703Z,100.00
2023-02-03T22:08:52.593Z,100.00
2023-02-03T22:11:23.736Z,100.00
2023-02-03T22:13:52.508Z,100.00
2023-02-03T22:16:20.723Z,100.00
2023-02-03T22:18:52.752Z,100.00
2023-02-03T22:21:21.021Z,100.00
2023-02-03T22:23:49.363Z,100.00
2023-02-03T22:26:18.238Z,100.00
2023-02-03T22:28:47.730Z,100.00
2023-02-03T22:31:16.513Z,100.00
2023-02-03T22:33:44.793Z,100.00
2023-02-03T22:36:14.418Z,100.00
2023-02-03T22:38:43.351Z,100.00
2023-02-03T22:41:13.048Z,100.00
2023-02-03T22:43:41.494Z,100.00
2023-02-03T22:46:10.837Z,100.00
2023-02-03T22:48:38.928Z,100.00
2023-02-03T22:51:07.282Z,100.00
2023-02-03T22:53:35.670Z,100.00
2023-02-03T22:56:03.711Z,100.00
2023-02-03T22:58:31.696Z,100.00
2023-02-03T23:00:59.763Z,100.00
2023-02-03T23:03:32.375Z,100.00
2023-02-03T23:06:00.710Z,100.00
2023-02-03T23:08:28.684Z,100.00
2023-02-03T23:10:56.898Z,100.00
2023-02-03T23:13:25.026Z,100.00
2023-02-03T23:15:53.054Z,100.00
2023-02-03T23:18:20.976Z,100.00
2023-02-03T23:20:50.295Z,100.00
2023-02-03T23:23:18.217Z,100.00
2023-02-03T23:25:46.184Z,100.00
2023-02-03T23:28:14.161Z,100.00
2023-02-03T23:30:42.225Z,100.00
2023-02-03T23:33:10.102Z,100.00
2023-02-03T23:35:45.846Z,100.00
2023-02-03T23:38:16.490Z,100.00
2023-02-03T23:40:45.375Z,100.00
2023-02-03T23:43:13.307Z,100.00
2023-02-03T23:45:41.476Z,100.00
2023-02-03T23:48:09.572Z,100.00
2023-02-03T23:50:37.500Z,100.00
2023-02-03T23:53:05.584Z,100.00
2023-02-03T23:55:36.274Z,100.00
2023-02-03T23:58:04.941Z,100.00
